createdAt,value
2018-06-25T00:00:16.176Z,14.40
2018-06-25T00:02:44.613Z,14.40
2018-06-25T00:05:13.183Z,14.40
2018-06-25T00:07:41.621Z,14.50
2018-06-25T00:10:10.065Z,14.50
2018-06-25T00:12:38.482Z,14.50
2018-06-25T00:15:06.989Z,14.50
2018-06-25T00:17:35.432Z,14.50
2018-06-25T00:20:03.868Z,14.50
2018-06-25T00:22:32.300Z,14.50
2018-06-25T00:25:00.720Z,14.50
2018-06-25T00:27:29.129Z,14.50
2018-06-25T00:29:57.554Z,14.50
2018-06-25T00:32:25.964Z,14.50
2018-06-25T00:34:54.389Z,14.50
2018-06-25T00:39:50.953Z,14.50
2018-06-25T00:42:19.391Z,14.60
2018-06-25T00:44:47.826Z,14.60
2018-06-25T00:47:16.224Z,14.60
2018-06-25T00:49:44.665Z,14.50
2018-06-25T00:54:41.227Z,14.40
2018-06-25T00:57:09.645Z,14.40
2018-06-25T00:59:53.993Z,14.50
2018-06-25T01:02:22.732Z,14.40
2018-06-25T01:04:51.161Z,14.40
2018-06-25T01:07:19.961Z,14.40
2018-06-25T01:09:48.652Z,14.40
2018-06-25T01:12:17.085Z,14.40
2018-06-25T01:14:45.788Z,14.40
2018-06-25T01:17:14.233Z,14.30
2018-06-25T01:19:42.656Z,14.30
2018-06-25T01:22:11.540Z,14.40
2018-06-25T01:24:40.236Z,14.40
2018-06-25T01:27:09.729Z,14.40
2018-06-25T01:29:39.845Z,14.40
2018-06-25T01:32:08.269Z,14.40
2018-06-25T01:37:05.265Z,14.40
2018-06-25T01:39:34.081Z,14.40
2018-06-25T01:42:02.964Z,14.30
2018-06-25T01:44:31.418Z,14.30
2018-06-25T01:46:59.893Z,14.30
2018-06-25T01:49:28.304Z,14.30
2018-06-25T01:51:56.734Z,14.30
2018-06-25T01:54:25.189Z,14.30
2018-06-25T01:56:53.604Z,14.30
2018-06-25T01:59:22.029Z,14.30
2018-06-25T02:01:50.480Z,14.30
2018-06-25T02:04:18.888Z,14.20
2018-06-25T02:06:47.317Z,14.30
2018-06-25T02:09:15.744Z,14.30
2018-06-25T02:14:12.285Z,14.20
2018-06-25T02:16:40.756Z,14.20
2018-06-25T02:19:09.218Z,14.20
2018-06-25T02:21:37.628Z,14.10
2018-06-25T02:24:06.092Z,14.00
2018-06-25T02:26:34.530Z,14.00
2018-06-25T02:29:03.007Z,14.00
2018-06-25T02:31:31.423Z,14.00
2018-06-25T02:33:59.864Z,14.00
2018-06-25T02:36:28.269Z,14.00
2018-06-25T02:38:56.714Z,14.00
2018-06-25T02:41:25.121Z,14.10
2018-06-25T02:43:53.544Z,14.00
2018-06-25T02:46:22.813Z,14.00
2018-06-25T02:48:51.229Z,14.10
2018-06-25T02:51:19.649Z,14.10
2018-06-25T02:53:48.066Z,14.00
2018-06-25T02:56:16.505Z,14.10
2018-06-25T02:58:44.916Z,14.10
2018-06-25T03:01:13.385Z,14.10
2018-06-25T03:03:41.789Z,14.10
2018-06-25T03:08:38.374Z,14.10
2018-06-25T03:11:07.320Z,14.10
2018-06-25T03:13:35.745Z,14.10
2018-06-25T03:16:04.225Z,14.10
2018-06-25T03:18:32.648Z,14.10
2018-06-25T03:21:01.097Z,14.10
2018-06-25T03:23:29.528Z,14.10
2018-06-25T03:25:57.964Z,14.10
2018-06-25T03:28:26.373Z,14.10
2018-06-25T03:33:22.939Z,14.10
2018-06-25T03:35:51.399Z,14.10
2018-06-25T03:38:19.869Z,14.10
2018-06-25T03:40:48.458Z,14.10
2018-06-25T03:43:16.914Z,14.10
2018-06-25T03:45:45.308Z,14.10
2018-06-25T03:48:13.748Z,14.10
2018-06-25T03:50:42.210Z,14.10
2018-06-25T03:53:10.644Z,14.10
2018-06-25T03:55:39.063Z,14.10
2018-06-25T03:58:07.501Z,14.10
2018-06-25T04:00:35.921Z,14.10
2018-06-25T04:03:04.369Z,14.10
2018-06-25T04:08:01.164Z,14.20
2018-06-25T04:10:29.793Z,14.10
2018-06-25T04:12:58.456Z,14.20
2018-06-25T04:15:26.900Z,14.20
2018-06-25T04:17:55.389Z,14.20
2018-06-25T04:20:23.812Z,14.20
2018-06-25T04:22:52.236Z,14.30
2018-06-25T04:25:20.661Z,14.20
2018-06-25T04:27:49.088Z,14.20
2018-06-25T04:30:17.505Z,14.20
2018-06-25T04:32:45.941Z,14.20
2018-06-25T04:35:14.353Z,14.30
2018-06-25T04:37:42.764Z,14.20
2018-06-25T04:40:11.242Z,14.30
2018-06-25T04:42:39.661Z,14.30
2018-06-25T04:45:08.097Z,14.30
2018-06-25T04:47:36.500Z,14.30
2018-06-25T04:50:04.980Z,14.20
2018-06-25T04:52:33.398Z,14.20
2018-06-25T04:55:01.817Z,14.20
2018-06-25T04:59:58.356Z,14.30
2018-06-25T05:02:26.788Z,14.30
2018-06-25T05:04:55.217Z,14.30
2018-06-25T05:07:23.710Z,14.30
2018-06-25T05:09:52.132Z,14.40
2018-06-25T05:12:20.629Z,14.40
2018-06-25T05:14:49.109Z,14.40
2018-06-25T05:17:17.525Z,14.40
2018-06-25T05:22:14.137Z,14.50
2018-06-25T05:24:42.571Z,14.60
2018-06-25T05:27:11.013Z,14.60
2018-06-25T05:29:39.437Z,14.60
2018-06-25T05:32:07.900Z,14.50
2018-06-25T05:34:36.321Z,14.60
2018-06-25T05:37:04.792Z,14.60
2018-06-25T05:39:33.282Z,14.60
2018-06-25T05:42:01.796Z,14.60
2018-06-25T05:46:58.308Z,14.70
2018-06-25T05:49:26.748Z,14.70
2018-06-25T05:51:55.153Z,14.90
2018-06-25T05:54:23.611Z,15.10
2018-06-25T05:56:52.030Z,15.20
2018-06-25T05:59:20.456Z,15.30
2018-06-25T06:01:48.888Z,15.40
2018-06-25T06:04:17.309Z,15.50
2018-06-25T06:06:45.748Z,15.60
2018-06-25T06:09:14.173Z,15.80
2018-06-25T06:11:42.599Z,15.90
2018-06-25T06:14:11.014Z,16.00
2018-06-25T06:19:07.577Z,15.60
2018-06-25T06:21:35.997Z,15.50
2018-06-25T06:24:04.489Z,15.60
2018-06-25T06:26:32.923Z,15.70
2018-06-25T06:29:01.402Z,15.80
2018-06-25T06:31:29.873Z,15.70
2018-06-25T06:33:58.296Z,15.70
2018-06-25T06:36:26.754Z,15.70
2018-06-25T06:38:55.209Z,15.80
2018-06-25T06:41:23.665Z,15.80
2018-06-25T06:46:20.189Z,16.00
2018-06-25T06:48:48.661Z,16.10
2018-06-25T06:51:17.106Z,16.20
2018-06-25T06:53:45.561Z,16.50
2018-06-25T06:56:14.038Z,16.70
2018-06-25T07:01:10.873Z,17.10
2018-06-25T07:03:39.318Z,17.20
2018-06-25T07:06:07.817Z,17.20
2018-06-25T07:08:36.244Z,17.20
2018-06-25T07:11:04.707Z,17.10
2018-06-25T07:13:33.189Z,17.00
2018-06-25T07:16:01.626Z,17.00
2018-06-25T07:18:30.070Z,17.00
2018-06-25T07:20:58.525Z,17.10
2018-06-25T07:23:26.997Z,17.00
2018-06-25T07:28:23.552Z,16.90
2018-06-25T07:30:52.010Z,16.90
2018-06-25T07:33:20.441Z,17.00
2018-06-25T07:35:48.904Z,17.00
2018-06-25T07:38:17.366Z,17.20
2018-06-25T07:43:13.941Z,17.50
2018-06-25T07:45:42.398Z,17.60
2018-06-25T07:50:38.966Z,17.60
2018-06-25T07:53:07.744Z,17.60
2018-06-25T07:55:36.208Z,17.90
2018-06-25T08:00:32.821Z,18.00
2018-06-25T08:03:01.290Z,17.90
2018-06-25T08:05:29.752Z,17.80
2018-06-25T08:07:58.253Z,17.90
2018-06-25T08:10:26.779Z,18.00
2018-06-25T08:12:55.216Z,18.20
2018-06-25T08:15:23.821Z,18.40
2018-06-25T08:17:52.373Z,18.40
2018-06-25T08:20:20.943Z,18.60
2018-06-25T08:22:49.776Z,19.00
2018-06-25T08:27:46.381Z,19.60
2018-06-25T08:30:14.928Z,19.30
2018-06-25T08:32:43.295Z,19.10
2018-06-25T08:37:39.805Z,18.80
2018-06-25T08:40:08.329Z,18.80
2018-06-25T08:42:36.761Z,18.70
2018-06-25T08:45:05.313Z,18.70
2018-06-25T08:47:33.745Z,18.80
2018-06-25T08:50:02.277Z,18.90
2018-06-25T08:52:30.714Z,18.80
2018-06-25T08:57:27.373Z,19.00
2018-06-25T09:02:23.957Z,19.30
2018-06-25T09:04:52.384Z,19.30
2018-06-25T09:07:20.897Z,19.20
2018-06-25T09:09:49.390Z,18.90
2018-06-25T09:12:18.020Z,18.90
2018-06-25T09:17:14.804Z,18.80
2018-06-25T09:19:43.449Z,18.90
2018-06-25T09:22:11.980Z,19.50
2018-06-25T09:24:40.409Z,19.80
2018-06-25T09:27:08.882Z,20.00
2018-06-25T09:29:37.352Z,20.30
2018-06-25T09:32:05.862Z,20.50
2018-06-25T09:34:39.569Z,20.20
2018-06-25T09:39:36.241Z,19.90
2018-06-25T09:42:04.701Z,19.80
2018-06-25T09:47:01.327Z,19.70
2018-06-25T09:49:29.738Z,19.70
2018-06-25T09:51:58.412Z,19.60
2018-06-25T09:56:54.988Z,20.00
2018-06-25T09:59:23.424Z,19.90
2018-06-25T10:01:51.854Z,19.90
2018-06-25T10:04:20.292Z,19.70
2018-06-25T10:06:48.701Z,19.80
2018-06-25T10:09:17.126Z,20.20
2018-06-25T10:11:45.580Z,20.60
2018-06-25T10:14:14.053Z,21.10
2018-06-25T10:16:42.508Z,21.60
2018-06-25T10:19:10.925Z,21.70
2018-06-25T10:21:39.419Z,22.30
2018-06-25T10:24:07.845Z,22.70
2018-06-25T10:26:36.573Z,23.30
2018-06-25T10:29:05.026Z,23.60
2018-06-25T10:31:33.477Z,23.20
2018-06-25T10:34:01.907Z,23.40
2018-06-25T10:36:30.325Z,23.40
2018-06-25T10:38:58.749Z,23.10
2018-06-25T10:41:27.196Z,23.10
2018-06-25T10:43:55.617Z,22.70
2018-06-25T10:46:24.028Z,22.20
2018-06-25T10:51:20.597Z,21.30
2018-06-25T10:53:49.008Z,21.40
2018-06-25T10:56:17.451Z,21.60
2018-06-25T11:01:14.068Z,21.40
2018-06-25T11:03:43.389Z,21.10
2018-06-25T11:06:11.879Z,21.00
2018-06-25T11:08:40.988Z,21.10
2018-06-25T11:11:09.672Z,21.30
2018-06-25T11:13:38.373Z,21.10
2018-06-25T11:16:07.112Z,21.00
2018-06-25T11:18:35.685Z,21.20
2018-06-25T11:21:04.133Z,21.40
2018-06-25T11:23:32.569Z,21.40
2018-06-25T11:28:29.121Z,21.10
2018-06-25T11:30:57.601Z,21.00
2018-06-25T11:35:54.167Z,20.70
2018-06-25T11:38:22.600Z,20.00
2018-06-25T11:40:51.049Z,19.90
2018-06-25T11:43:19.480Z,19.90
2018-06-25T11:45:47.968Z,20.20
2018-06-25T11:48:16.381Z,20.10
2018-06-25T11:50:44.812Z,20.00
2018-06-25T11:55:41.677Z,20.20
2018-06-25T12:00:38.237Z,20.20
2018-06-25T12:03:07.229Z,20.20
2018-06-25T12:05:35.481Z,20.30
2018-06-25T12:08:03.952Z,20.50
2018-06-25T12:10:32.466Z,20.80
2018-06-25T12:13:00.848Z,21.00
2018-06-25T12:15:29.317Z,21.30
2018-06-25T12:17:57.760Z,21.60
2018-06-25T12:20:26.487Z,22.00
2018-06-25T12:22:54.922Z,22.30
2018-06-25T12:25:23.425Z,22.40
2018-06-25T12:27:51.914Z,22.60
2018-06-25T12:30:20.321Z,22.60
2018-06-25T12:32:48.750Z,22.70
2018-06-25T12:37:45.370Z,22.70
2018-06-25T12:40:13.857Z,22.60
2018-06-25T12:42:42.574Z,22.50
2018-06-25T12:45:11.022Z,22.20
2018-06-25T12:47:39.470Z,21.90
2018-06-25T12:50:08.035Z,21.90
2018-06-25T12:52:36.482Z,21.90
2018-06-25T12:57:34.038Z,21.70
2018-06-25T13:00:02.478Z,22.00
2018-06-25T13:02:30.937Z,22.40
2018-06-25T13:04:59.427Z,22.50
2018-06-25T13:07:27.881Z,22.50
2018-06-25T13:09:56.408Z,22.40
2018-06-25T13:12:25.030Z,22.20
2018-06-25T13:17:21.644Z,22.50
2018-06-25T13:19:50.094Z,22.60
2018-06-25T13:22:18.533Z,22.60
2018-06-25T13:24:46.981Z,22.60
2018-06-25T13:27:15.445Z,22.60
2018-06-25T13:29:43.888Z,22.60
2018-06-25T13:32:12.344Z,22.90
2018-06-25T13:34:40.769Z,23.10
2018-06-25T13:37:09.274Z,23.20
2018-06-25T13:39:37.712Z,23.30
2018-06-25T13:42:06.473Z,23.40
2018-06-25T13:49:31.170Z,23.20
2018-06-25T13:51:59.629Z,23.10
2018-06-25T13:54:28.109Z,23.20
2018-06-25T13:56:56.593Z,23.10
2018-06-25T13:59:25.077Z,23.60
2018-06-25T14:01:53.488Z,23.80
2018-06-25T14:04:21.988Z,24.00
2018-06-25T14:06:50.445Z,23.70
2018-06-25T14:09:18.884Z,23.90
2018-06-25T14:11:47.382Z,23.90
2018-06-25T14:14:15.869Z,24.20
2018-06-25T14:16:44.440Z,24.00
2018-06-25T14:19:12.801Z,24.00
2018-06-25T14:21:41.300Z,24.40
2018-06-25T14:24:15.105Z,24.80
2018-06-25T14:26:44.649Z,24.90
2018-06-25T14:29:18.478Z,24.80
2018-06-25T14:31:46.909Z,25.10
2018-06-25T14:34:20.836Z,25.50
2018-06-25T14:36:49.293Z,26.10
2018-06-25T14:39:17.771Z,25.60
2018-06-25T14:41:46.177Z,25.00
2018-06-25T14:44:14.625Z,24.80
2018-06-25T14:46:43.097Z,24.90
2018-06-25T14:49:11.532Z,25.20
2018-06-25T14:51:39.975Z,25.00
2018-06-25T14:54:08.494Z,25.20
2018-06-25T14:56:36.972Z,25.70
2018-06-25T14:59:05.600Z,26.00
2018-06-25T15:01:34.017Z,25.80
2018-06-25T15:04:02.742Z,25.70
2018-06-25T15:06:31.187Z,25.20
2018-06-25T15:08:59.624Z,24.80
2018-06-25T15:11:28.069Z,24.80
2018-06-25T15:13:56.501Z,24.90
2018-06-25T15:16:24.926Z,25.20
2018-06-25T15:18:54.276Z,25.20
2018-06-25T15:21:22.698Z,24.80
2018-06-25T15:23:51.164Z,24.10
2018-06-25T15:26:19.624Z,24.10
2018-06-25T15:28:48.091Z,24.50
2018-06-25T15:31:16.499Z,24.60
2018-06-25T15:33:44.913Z,24.60
2018-06-25T15:36:13.345Z,24.70
2018-06-25T15:38:41.789Z,25.00
2018-06-25T15:41:10.230Z,25.30
2018-06-25T15:43:38.630Z,25.10
2018-06-25T15:46:07.090Z,25.20
2018-06-25T15:48:35.543Z,25.60
2018-06-25T15:51:03.988Z,25.60
2018-06-25T15:53:32.484Z,25.40
2018-06-25T15:56:00.939Z,25.00
2018-06-25T15:58:29.417Z,25.00
2018-06-25T16:00:57.842Z,25.00
2018-06-25T16:03:26.376Z,24.60
2018-06-25T16:05:54.833Z,24.20
2018-06-25T16:08:23.253Z,24.00
2018-06-25T16:10:51.733Z,24.00
2018-06-25T16:15:48.265Z,23.60
2018-06-25T16:18:16.708Z,23.70
2018-06-25T16:20:45.188Z,23.70
2018-06-25T16:23:13.608Z,23.90
2018-06-25T16:30:38.254Z,24.00
2018-06-25T16:33:06.725Z,23.80
2018-06-25T16:35:35.165Z,23.70
2018-06-25T16:38:03.673Z,23.60
2018-06-25T16:40:32.133Z,23.50
2018-06-25T16:43:00.603Z,23.40
2018-06-25T16:45:29.036Z,23.40
2018-06-25T16:47:57.476Z,23.20
2018-06-25T16:50:26.033Z,23.20
2018-06-25T16:52:54.575Z,23.10
2018-06-25T16:55:23.022Z,23.20
2018-06-25T16:57:51.453Z,23.30
2018-06-25T17:00:19.891Z,23.30
2018-06-25T17:02:48.360Z,23.50
2018-06-25T17:05:16.801Z,23.60
2018-06-25T17:07:45.243Z,23.60
2018-06-25T17:10:13.718Z,23.50
2018-06-25T17:12:42.177Z,23.70
2018-06-25T17:15:10.609Z,23.50
2018-06-25T17:17:39.116Z,23.50
2018-06-25T17:20:07.587Z,23.40
2018-06-25T17:22:36.081Z,23.30
2018-06-25T17:25:04.653Z,23.20
2018-06-25T17:27:33.073Z,23.20
2018-06-25T17:30:01.577Z,23.10
2018-06-25T17:32:30.009Z,23.00
2018-06-25T17:37:26.857Z,22.70
2018-06-25T17:39:55.316Z,22.70
2018-06-25T17:42:23.745Z,22.60
2018-06-25T17:44:52.206Z,22.50
2018-06-25T17:52:17.103Z,22.10
2018-06-25T17:57:13.708Z,22.10
2018-06-25T17:59:42.176Z,22.00
2018-06-25T18:02:10.705Z,21.90
2018-06-25T18:04:39.328Z,22.00
2018-06-25T18:07:07.827Z,22.00
2018-06-25T18:09:36.411Z,22.00
2018-06-25T18:14:32.953Z,22.10
2018-06-25T18:17:01.446Z,22.00
2018-06-25T18:19:29.963Z,22.00
2018-06-25T18:21:58.543Z,22.00
2018-06-25T18:24:27.401Z,22.00
2018-06-25T18:26:56.033Z,22.00
2018-06-25T18:29:24.488Z,22.00
2018-06-25T18:31:52.942Z,21.90
2018-06-25T18:34:21.426Z,21.90
2018-06-25T18:36:49.911Z,21.80
2018-06-25T18:39:18.437Z,21.80
2018-06-25T18:41:46.885Z,21.80
2018-06-25T18:44:15.345Z,21.80
2018-06-25T18:46:43.781Z,21.80
2018-06-25T18:51:40.353Z,21.60
2018-06-25T18:54:08.937Z,21.50
2018-06-25T18:56:37.293Z,21.40
2018-06-25T18:59:05.737Z,21.40
2018-06-25T19:01:34.197Z,21.40
2018-06-25T19:04:03.370Z,21.30
2018-06-25T19:06:31.866Z,21.30
2018-06-25T19:09:00.338Z,21.20
2018-06-25T19:11:28.828Z,21.00
2018-06-25T19:13:57.358Z,21.00
2018-06-25T19:16:25.805Z,21.00
2018-06-25T19:18:54.268Z,20.90
2018-06-25T19:21:22.705Z,20.90
2018-06-25T19:23:51.133Z,20.80
2018-06-25T19:26:19.670Z,20.80
2018-06-25T19:28:48.221Z,20.70
2018-06-25T19:31:16.779Z,20.60
2018-06-25T19:33:45.228Z,20.50
2018-06-25T19:36:13.825Z,20.40
2018-06-25T19:38:42.260Z,20.40
2018-06-25T19:41:10.716Z,20.40
2018-06-25T19:43:39.325Z,20.30
2018-06-25T19:46:07.981Z,20.20
2018-06-25T19:48:36.457Z,20.20
2018-06-25T19:53:33.104Z,20.10
2018-06-25T19:56:01.526Z,20.00
2018-06-25T19:58:30.044Z,19.90
2018-06-25T20:00:58.688Z,19.70
2018-06-25T20:03:27.150Z,19.60
2018-06-25T20:05:55.641Z,19.50
2018-06-25T20:08:24.153Z,19.40
2018-06-25T20:10:52.637Z,19.20
2018-06-25T20:13:21.061Z,19.10
2018-06-25T20:18:17.840Z,18.90
2018-06-25T20:20:46.298Z,18.80
2018-06-25T20:23:14.748Z,18.70
2018-06-25T20:25:43.241Z,18.50
2018-06-25T20:28:11.724Z,18.50
2018-06-25T20:30:40.200Z,18.40
2018-06-25T20:33:08.781Z,18.40
2018-06-25T20:35:37.349Z,18.40
2018-06-25T20:38:08.256Z,18.40
2018-06-25T20:40:37.007Z,18.40
2018-06-25T20:43:05.542Z,18.30
2018-06-25T20:45:34.030Z,18.30
2018-06-25T20:48:02.478Z,18.30
2018-06-25T20:50:31.196Z,18.10
2018-06-25T20:52:59.825Z,18.10
2018-06-25T20:55:28.415Z,18.00
2018-06-25T20:57:56.888Z,17.90
2018-06-25T21:00:25.352Z,17.90
2018-06-25T21:05:22.090Z,17.70
2018-06-25T21:07:50.505Z,17.70
2018-06-25T21:10:19.075Z,17.60
2018-06-25T21:12:47.645Z,17.60
2018-06-25T21:15:16.116Z,17.60
2018-06-25T21:17:44.589Z,17.60
2018-06-25T21:20:13.093Z,17.50
2018-06-25T21:25:09.757Z,17.50
2018-06-25T21:27:38.367Z,17.50
2018-06-25T21:30:07.644Z,17.40
2018-06-25T21:32:36.122Z,17.30
2018-06-25T21:35:04.614Z,17.30
2018-06-25T21:37:33.048Z,17.30
2018-06-25T21:42:29.730Z,17.20
2018-06-25T21:44:58.216Z,17.10
2018-06-25T21:47:26.703Z,17.10
2018-06-25T21:49:55.132Z,17.00
2018-06-25T21:52:23.561Z,17.00
2018-06-25T21:54:51.984Z,17.00
2018-06-25T21:57:20.569Z,17.00
2018-06-25T22:02:17.317Z,16.90
2018-06-25T22:04:45.772Z,16.90
2018-06-25T22:07:14.194Z,16.80
2018-06-25T22:09:42.809Z,16.80
2018-06-25T22:12:11.282Z,16.70
2018-06-25T22:14:39.685Z,16.60
2018-06-25T22:17:08.161Z,16.60
2018-06-25T22:19:36.585Z,16.60
2018-06-25T22:22:05.042Z,16.60
2018-06-25T22:24:33.486Z,16.60
2018-06-25T22:27:01.905Z,16.60
2018-06-25T22:29:30.336Z,16.50
2018-06-25T22:31:58.752Z,16.50
2018-06-25T22:34:27.172Z,16.50
2018-06-25T22:36:55.632Z,16.50
2018-06-25T22:39:24.070Z,16.50
2018-06-25T22:41:52.489Z,16.50
2018-06-25T22:44:20.920Z,16.50
2018-06-25T22:46:49.350Z,16.50
2018-06-25T22:51:45.880Z,16.50
2018-06-25T22:54:14.328Z,16.50
2018-06-25T22:56:42.761Z,16.50
2018-06-25T22:59:11.178Z,16.50
2018-06-25T23:01:39.645Z,16.40
2018-06-25T23:04:08.090Z,16.30
2018-06-25T23:09:07.846Z,16.10
2018-06-25T23:11:36.385Z,16.10
2018-06-25T23:14:05.141Z,16.10
2018-06-25T23:16:33.630Z,16.10
2018-06-25T23:19:02.065Z,16.00
2018-06-25T23:21:30.539Z,16.00
2018-06-25T23:23:58.944Z,16.00
2018-06-25T23:26:27.390Z,16.10
2018-06-25T23:28:55.823Z,16.10
2018-06-25T23:31:24.277Z,16.10
2018-06-25T23:33:52.689Z,16.10
2018-06-25T23:36:21.120Z,16.10
2018-06-25T23:38:49.589Z,16.10
2018-06-25T23:41:18.001Z,16.00
2018-06-25T23:43:46.598Z,16.00
2018-06-25T23:46:15.000Z,16.00
2018-06-25T23:51:11.560Z,15.90
2018-06-25T23:53:39.999Z,15.90
2018-06-25T23:56:08.436Z,15.80
2018-06-25T23:58:36.914Z,15.80
